createdAt,value
2019-04-20T00:01:50.687Z,13.57
2019-04-20T00:04:55.028Z,13.69
2019-04-20T00:08:01.218Z,13.69
2019-04-20T00:11:17.695Z,13.67
2019-04-20T00:14:19.221Z,13.67
2019-04-20T00:17:19.999Z,13.49
2019-04-20T00:20:29.302Z,13.27
2019-04-20T00:23:51.441Z,13.20
2019-04-20T00:27:18.198Z,13.08
2019-04-20T00:30:25.983Z,13.01
2019-04-20T00:33:25.772Z,12.88
2019-04-20T00:36:13.867Z,12.82
2019-04-20T00:39:20.237Z,12.84
2019-04-20T00:42:33.946Z,12.83
2019-04-20T00:45:33.714Z,12.76
2019-04-20T00:48:47.351Z,12.64
2019-04-20T00:52:07.499Z,12.46
2019-04-20T00:54:49.439Z,12.44
2019-04-20T00:57:59.886Z,12.45
2019-04-20T01:01:20.549Z,12.37
2019-04-20T01:04:23.826Z,12.23
2019-04-20T01:07:39.407Z,12.26
2019-04-20T01:10:41.652Z,12.30
2019-04-20T01:13:45.965Z,12.28
2019-04-20T01:16:54.917Z,12.27
2019-04-20T01:19:54.102Z,12.29
2019-04-20T01:23:04.862Z,12.45
2019-04-20T01:26:10.968Z,12.41
2019-04-20T01:29:21.736Z,12.29
2019-04-20T01:32:27.839Z,12.26
2019-04-20T01:35:39.517Z,12.29
2019-04-20T01:38:44.643Z,12.32
2019-04-20T01:41:35.168Z,12.09
2019-04-20T01:44:44.071Z,11.85
2019-04-20T01:47:50.539Z,11.94
2019-04-20T01:50:59.672Z,11.86
2019-04-20T01:54:16.020Z,11.71
2019-04-20T01:57:53.384Z,11.54
2019-04-20T02:00:57.314Z,11.37
2019-04-20T02:04:11.931Z,11.25
2019-04-20T02:07:13.644Z,11.26
2019-04-20T02:10:19.983Z,11.32
2019-04-20T02:13:26.194Z,11.29
2019-04-20T02:16:38.297Z,11.13
2019-04-20T02:19:57.222Z,11.21
2019-04-20T02:22:56.922Z,11.21
2019-04-20T02:25:48.026Z,11.10
2019-04-20T02:29:20.255Z,11.13
2019-04-20T02:32:26.546Z,11.22
2019-04-20T02:36:04.836Z,11.22
2019-04-20T02:39:22.126Z,11.22
2019-04-20T02:45:27.825Z,11.33
2019-04-20T02:48:25.289Z,11.30
2019-04-20T02:51:38.987Z,11.26
2019-04-20T02:54:42.194Z,11.22
2019-04-20T02:57:47.355Z,11.22
2019-04-20T03:00:44.823Z,11.12
2019-04-20T03:03:30.702Z,11.12
2019-04-20T03:06:39.546Z,11.08
2019-04-20T03:09:56.578Z,11.10
2019-04-20T03:13:05.395Z,11.21
2019-04-20T03:16:04.123Z,11.26
2019-04-20T03:19:14.183Z,11.19
2019-04-20T03:22:23.602Z,11.11
2019-04-20T03:25:53.426Z,11.01
2019-04-20T03:29:12.796Z,10.95
2019-04-20T03:36:00.381Z,10.80
2019-04-20T03:38:45.113Z,10.78
2019-04-20T03:41:36.279Z,10.71
2019-04-20T03:44:35.728Z,10.72
2019-04-20T03:47:54.334Z,10.73
2019-04-20T03:51:04.629Z,10.63
2019-04-20T03:54:15.977Z,10.47
2019-04-20T03:57:36.944Z,10.31
2019-04-20T04:00:58.295Z,10.24
2019-04-20T04:04:38.841Z,10.15
2019-04-20T04:07:33.475Z,10.09
2019-04-20T04:10:48.536Z,10.06
2019-04-20T04:13:35.553Z,10.08
2019-04-20T04:16:47.786Z,10.14
2019-04-20T04:19:55.808Z,10.12
2019-04-20T04:23:10.281Z,10.02
2019-04-20T04:26:20.404Z,9.83
2019-04-20T04:29:28.817Z,9.74
2019-04-20T04:32:45.428Z,9.85
2019-04-20T04:35:28.069Z,9.81
2019-04-20T04:38:41.904Z,9.80
2019-04-20T04:41:59.914Z,9.78
2019-04-20T04:44:43.259Z,9.75
2019-04-20T04:47:39.018Z,9.70
2019-04-20T04:50:52.172Z,9.74
2019-04-20T04:53:58.079Z,9.83
2019-04-20T04:56:54.908Z,10.00
2019-04-20T04:59:59.515Z,10.10
2019-04-20T05:03:26.898Z,10.18
2019-04-20T05:06:32.069Z,10.14
2019-04-20T05:09:23.805Z,10.24
2019-04-20T05:12:31.358Z,10.35
2019-04-20T05:15:48.423Z,10.40
2019-04-20T05:19:03.095Z,10.47
2019-04-20T05:22:17.844Z,10.59
2019-04-20T05:25:59.627Z,10.70
2019-04-20T05:28:53.220Z,10.80
2019-04-20T05:31:57.225Z,10.89
2019-04-20T05:35:25.495Z,11.05
2019-04-20T05:38:32.535Z,11.14
2019-04-20T05:41:26.948Z,11.31
2019-04-20T05:44:42.795Z,11.40
2019-04-20T05:47:43.164Z,11.47
2019-04-20T05:50:49.385Z,11.58
2019-04-20T05:53:57.420Z,11.70
2019-04-20T05:57:08.873Z,11.85
2019-04-20T06:03:11.013Z,12.25
2019-04-20T06:06:23.548Z,12.38
2019-04-20T06:09:27.781Z,12.54
2019-04-20T06:12:35.806Z,12.74
2019-04-20T06:15:50.554Z,12.91
2019-04-20T06:18:58.430Z,13.11
2019-04-20T06:22:14.859Z,13.26
2019-04-20T06:28:24.595Z,13.58
2019-04-20T06:31:30.019Z,13.65
2019-04-20T06:37:53.761Z,13.71
2019-04-20T06:41:01.117Z,13.87
2019-04-20T06:44:02.145Z,14.08
2019-04-20T06:50:08.602Z,14.42
2019-04-20T06:53:45.516Z,14.57
2019-04-20T06:56:42.636Z,14.76
2019-04-20T06:59:43.030Z,14.85
2019-04-20T07:02:56.360Z,15.06
2019-04-20T07:06:06.630Z,15.24
2019-04-20T07:09:06.192Z,15.35
2019-04-20T07:12:12.846Z,15.53
2019-04-20T07:15:17.424Z,15.73
2019-04-20T07:18:31.315Z,15.96
2019-04-20T07:22:01.860Z,16.15
2019-04-20T07:24:59.037Z,16.15
2019-04-20T07:28:02.223Z,16.12
2019-04-20T07:31:01.836Z,16.17
2019-04-20T07:34:11.612Z,16.35
2019-04-20T07:40:24.402Z,17.23
2019-04-20T07:43:30.011Z,17.73
2019-04-20T07:46:47.140Z,18.05
2019-04-20T07:49:41.408Z,18.25
2019-04-20T07:52:38.735Z,18.53
2019-04-20T07:55:59.301Z,18.68
2019-04-20T07:58:50.043Z,18.86
2019-04-20T08:02:23.576Z,18.92
2019-04-20T08:05:36.742Z,19.00
2019-04-20T08:08:43.794Z,19.17
2019-04-20T08:12:02.738Z,19.24
2019-04-20T08:15:04.975Z,19.31
2019-04-20T08:18:06.415Z,19.43
2019-04-20T08:21:16.734Z,19.57
2019-04-20T08:24:17.086Z,19.64
2019-04-20T08:27:13.154Z,19.61
2019-04-20T08:30:41.399Z,19.63
2019-04-20T08:34:03.103Z,19.96
2019-04-20T08:36:56.707Z,19.95
2019-04-20T08:43:26.509Z,20.32
2019-04-20T08:46:16.282Z,20.42
2019-04-20T08:49:26.428Z,20.57
2019-04-20T08:52:47.107Z,20.68
2019-04-20T08:55:29.670Z,20.75
2019-04-20T08:58:18.632Z,20.90
2019-04-20T09:01:28.258Z,21.13
2019-04-20T09:04:37.333Z,21.04
2019-04-20T09:07:47.655Z,21.19
2019-04-20T09:11:02.679Z,21.37
2019-04-20T09:13:51.909Z,21.60
2019-04-20T09:17:05.898Z,21.69
2019-04-20T09:20:14.471Z,21.90
2019-04-20T09:23:31.562Z,22.00
2019-04-20T09:26:41.343Z,22.03
2019-04-20T09:29:36.825Z,21.93
2019-04-20T09:33:14.666Z,22.03
2019-04-20T09:36:17.931Z,22.12
2019-04-20T09:39:35.171Z,22.37
2019-04-20T09:42:39.291Z,22.39
2019-04-20T09:45:48.574Z,22.57
2019-04-20T09:48:57.009Z,22.60
2019-04-20T09:52:10.923Z,22.76
2019-04-20T09:55:14.661Z,22.99
2019-04-20T09:58:19.215Z,22.98
2019-04-20T10:01:25.964Z,23.12
2019-04-20T10:04:19.559Z,23.13
2019-04-20T10:07:26.108Z,23.40
2019-04-20T10:10:35.947Z,23.20
2019-04-20T10:13:36.357Z,23.28
2019-04-20T10:16:41.988Z,23.54
2019-04-20T10:19:46.680Z,23.59
2019-04-20T10:22:51.943Z,23.73
2019-04-20T10:25:56.567Z,23.39
2019-04-20T10:29:01.560Z,23.63
2019-04-20T10:32:08.823Z,23.87
2019-04-20T10:35:14.742Z,23.97
2019-04-20T10:38:21.521Z,23.95
2019-04-20T10:41:35.958Z,24.05
2019-04-20T10:44:32.521Z,23.96
2019-04-20T10:47:37.225Z,24.08
2019-04-20T10:50:41.144Z,24.03
2019-04-20T10:53:46.454Z,24.26
2019-04-20T10:56:51.840Z,24.33
2019-04-20T10:59:55.928Z,24.53
2019-04-20T11:02:59.858Z,24.60
2019-04-20T11:06:04.817Z,24.44
2019-04-20T11:09:09.358Z,24.68
2019-04-20T11:12:14.462Z,24.66
2019-04-20T11:15:18.768Z,24.74
2019-04-20T11:18:22.716Z,24.75
2019-04-20T11:21:26.595Z,24.84
2019-04-20T11:24:30.524Z,24.86
2019-04-20T11:27:36.314Z,24.80
2019-04-20T11:30:40.506Z,24.95
2019-04-20T11:33:44.364Z,25.10
2019-04-20T11:36:48.920Z,25.10
2019-04-20T11:39:52.947Z,25.13
2019-04-20T11:42:57.507Z,24.97
2019-04-20T11:46:02.786Z,25.14
2019-04-20T11:49:07.915Z,25.28
2019-04-20T11:52:13.280Z,25.19
2019-04-20T11:55:18.242Z,25.27
2019-04-20T11:58:22.193Z,25.38
2019-04-20T12:01:51.993Z,25.60
2019-04-20T12:05:10.271Z,25.45
2019-04-20T12:08:05.087Z,25.40
2019-04-20T12:11:22.706Z,25.41
2019-04-20T12:14:15.093Z,25.55
2019-04-20T12:17:19.629Z,25.83
2019-04-20T12:20:24.983Z,26.03
2019-04-20T12:23:28.936Z,26.02
2019-04-20T12:26:33.072Z,26.08
2019-04-20T12:29:38.385Z,26.13
2019-04-20T12:32:46.721Z,26.04
2019-04-20T12:35:49.990Z,25.82
2019-04-20T12:38:55.020Z,26.28
2019-04-20T12:42:03.886Z,26.31
2019-04-20T12:45:05.981Z,26.50
2019-04-20T12:48:11.368Z,26.46
2019-04-20T12:51:15.601Z,26.62
2019-04-20T12:54:20.650Z,26.33
2019-04-20T12:57:25.075Z,26.31
2019-04-20T13:00:49.611Z,26.18
2019-04-20T13:03:55.256Z,26.34
2019-04-20T13:06:59.683Z,26.55
2019-04-20T13:10:05.710Z,26.60
2019-04-20T13:13:22.730Z,26.79
2019-04-20T13:16:36.464Z,26.86
2019-04-20T13:19:41.530Z,26.78
2019-04-20T13:22:46.610Z,27.06
2019-04-20T13:25:50.859Z,27.09
2019-04-20T13:28:55.180Z,27.03
2019-04-20T13:32:00.170Z,26.94
2019-04-20T13:35:04.597Z,26.91
2019-04-20T13:38:09.969Z,26.99
2019-04-20T13:41:15.681Z,27.10
2019-04-20T13:44:20.105Z,27.45
2019-04-20T13:47:25.079Z,27.48
2019-04-20T13:50:29.625Z,27.43
2019-04-20T13:53:35.035Z,27.24
2019-04-20T13:56:39.673Z,27.66
2019-04-20T13:59:48.094Z,27.78
2019-04-20T14:02:58.630Z,27.91
2019-04-20T14:06:02.990Z,27.90
2019-04-20T14:09:09.779Z,27.93
2019-04-20T14:12:22.470Z,28.15
2019-04-20T14:15:20.293Z,28.35
2019-04-20T14:18:25.057Z,28.09
2019-04-20T14:21:30.206Z,28.27
2019-04-20T14:24:35.013Z,28.36
2019-04-20T14:27:40.251Z,28.17
2019-04-20T14:30:45.776Z,28.28
2019-04-20T14:33:50.862Z,28.40
2019-04-20T14:36:55.190Z,28.64
2019-04-20T14:40:00.499Z,28.75
2019-04-20T14:43:04.520Z,28.72
2019-04-20T14:46:08.774Z,28.72
2019-04-20T14:49:12.686Z,28.64
2019-04-20T14:52:17.654Z,28.66
2019-04-20T14:55:22.561Z,29.05
2019-04-20T14:59:05.244Z,28.68
2019-04-20T15:02:15.376Z,28.77
2019-04-20T15:05:19.458Z,28.41
2019-04-20T15:08:24.875Z,28.27
2019-04-20T15:11:29.028Z,28.65
2019-04-20T15:14:32.840Z,28.47
2019-04-20T15:17:43.717Z,27.81
2019-04-20T15:20:51.325Z,27.92
2019-04-20T15:23:55.588Z,28.39
2019-04-20T15:27:00.511Z,28.46
2019-04-20T15:30:06.613Z,28.51
2019-04-20T15:33:10.496Z,28.85
2019-04-20T15:36:14.439Z,28.79
2019-04-20T15:39:20.770Z,28.82
2019-04-20T15:42:25.371Z,29.04
2019-04-20T15:45:29.572Z,29.06
2019-04-20T15:48:34.308Z,28.42
2019-04-20T15:51:39.654Z,28.78
2019-04-20T15:54:45.471Z,28.98
2019-04-20T15:57:50.477Z,29.04
2019-04-20T16:00:54.691Z,29.14
2019-04-20T16:04:03.606Z,29.14
2019-04-20T16:07:08.615Z,29.11
2019-04-20T16:10:13.001Z,29.06
2019-04-20T16:13:26.055Z,28.66
2019-04-20T16:16:23.867Z,28.43
2019-04-20T16:19:40.799Z,28.43
2019-04-20T16:22:34.382Z,28.20
2019-04-20T16:25:45.663Z,28.50
2019-04-20T16:28:50.137Z,28.50
2019-04-20T16:31:54.671Z,28.30
2019-04-20T16:35:00.253Z,28.02
2019-04-20T16:38:04.495Z,27.65
2019-04-20T16:41:08.467Z,27.52
2019-04-20T16:44:13.435Z,27.51
2019-04-20T16:47:18.483Z,27.46
2019-04-20T16:50:22.732Z,27.25
2019-04-20T16:53:26.928Z,26.90
2019-04-20T16:56:30.811Z,26.58
2019-04-20T16:59:40.080Z,26.41
2019-04-20T17:02:42.397Z,26.38
2019-04-20T17:05:49.566Z,26.18
2019-04-20T17:08:52.282Z,25.91
2019-04-20T17:11:57.391Z,25.79
2019-04-20T17:15:01.798Z,25.73
2019-04-20T17:18:06.010Z,25.59
2019-04-20T17:21:16.558Z,25.65
2019-04-20T17:24:15.619Z,25.53
2019-04-20T17:27:48.872Z,25.39
2019-04-20T17:31:03.086Z,25.23
2019-04-20T17:34:26.930Z,25.22
2019-04-20T17:37:16.244Z,25.12
2019-04-20T17:40:41.873Z,25.00
2019-04-20T17:43:37.176Z,24.82
2019-04-20T17:46:44.935Z,24.78
2019-04-20T17:50:00.728Z,24.68
2019-04-20T17:53:03.833Z,24.54
2019-04-20T17:55:54.806Z,24.48
2019-04-20T17:58:58.898Z,24.40
2019-04-20T18:02:47.417Z,24.33
2019-04-20T18:05:55.787Z,24.27
2019-04-20T18:08:56.415Z,24.15
2019-04-20T18:11:51.139Z,24.03
2019-04-20T18:15:10.315Z,23.88
2019-04-20T18:18:32.405Z,23.76
2019-04-20T18:21:32.940Z,23.65
2019-04-20T18:25:02.584Z,23.48
2019-04-20T18:27:59.925Z,23.35
2019-04-20T18:30:59.289Z,23.30
2019-04-20T18:34:08.957Z,23.20
2019-04-20T18:37:13.425Z,23.13
2019-04-20T18:40:28.027Z,23.07
2019-04-20T18:43:27.461Z,22.88
2019-04-20T18:46:55.520Z,22.70
2019-04-20T18:49:48.626Z,22.63
2019-04-20T18:52:42.140Z,22.52
2019-04-20T18:55:50.469Z,22.37
2019-04-20T18:58:51.810Z,22.09
2019-04-20T19:01:57.030Z,21.79
2019-04-20T19:05:03.557Z,21.71
2019-04-20T19:08:11.545Z,21.54
2019-04-20T19:11:18.041Z,21.32
2019-04-20T19:14:40.792Z,21.20
2019-04-20T19:18:06.934Z,21.04
2019-04-20T19:21:05.146Z,20.91
2019-04-20T19:24:12.648Z,20.66
2019-04-20T19:27:17.065Z,20.47
2019-04-20T19:30:34.384Z,20.23
2019-04-20T19:33:42.184Z,20.00
2019-04-20T19:36:38.970Z,19.88
2019-04-20T19:39:53.238Z,19.85
2019-04-20T19:42:59.206Z,19.66
2019-04-20T19:46:29.740Z,19.58
2019-04-20T19:49:07.951Z,19.40
2019-04-20T19:52:31.009Z,19.23
2019-04-20T19:55:24.413Z,19.14
2019-04-20T19:58:28.213Z,18.98
2019-04-20T20:01:22.028Z,18.69
2019-04-20T20:04:26.294Z,18.61
2019-04-20T20:07:37.980Z,18.64
2019-04-20T20:10:40.496Z,18.50
2019-04-20T20:13:47.962Z,18.40
2019-04-20T20:17:04.134Z,18.33
2019-04-20T20:20:20.018Z,18.34
2019-04-20T20:23:00.690Z,18.30
2019-04-20T20:26:07.173Z,18.04
2019-04-20T20:29:22.825Z,17.75
2019-04-20T20:32:37.482Z,17.83
2019-04-20T20:35:28.614Z,17.79
2019-04-20T20:38:36.951Z,17.72
2019-04-20T20:41:48.976Z,17.56
2019-04-20T20:44:51.725Z,17.46
2019-04-20T20:48:05.050Z,17.45
2019-04-20T20:51:10.453Z,17.35
2019-04-20T20:54:09.229Z,17.31
2019-04-20T20:57:12.704Z,17.20
2019-04-20T21:00:25.198Z,17.09
2019-04-20T21:03:25.612Z,16.87
2019-04-20T21:06:22.659Z,16.86
2019-04-20T21:09:27.195Z,16.80
2019-04-20T21:12:31.149Z,16.63
2019-04-20T21:15:35.371Z,16.57
2019-04-20T21:18:55.637Z,16.52
2019-04-20T21:21:54.734Z,16.49
2019-04-20T21:24:53.075Z,16.47
2019-04-20T21:27:57.024Z,16.37
2019-04-20T21:31:10.488Z,16.18
2019-04-20T21:34:12.646Z,16.18
2019-04-20T21:37:17.160Z,16.18
2019-04-20T21:40:27.839Z,16.02
2019-04-20T21:43:29.538Z,15.77
2019-04-20T21:46:38.914Z,15.75
2019-04-20T21:49:45.963Z,15.64
2019-04-20T21:52:45.115Z,15.64
2019-04-20T21:55:46.053Z,15.68
2019-04-20T21:58:56.664Z,15.51
2019-04-20T22:02:04.372Z,15.30
2019-04-20T22:05:01.413Z,15.30
2019-04-20T22:08:10.584Z,15.19
2019-04-20T22:11:11.825Z,15.24
2019-04-20T22:14:19.495Z,15.19
2019-04-20T22:17:27.578Z,15.11
2019-04-20T22:20:36.630Z,15.15
2019-04-20T22:23:53.076Z,15.08
2019-04-20T22:26:52.614Z,14.92
2019-04-20T22:29:46.213Z,14.95
2019-04-20T22:32:53.225Z,14.80
2019-04-20T22:36:00.902Z,14.78
2019-04-20T22:39:11.559Z,14.84
2019-04-20T22:42:17.906Z,14.94
2019-04-20T22:45:21.261Z,15.06
2019-04-20T22:48:25.170Z,15.15
2019-04-20T22:51:43.147Z,15.01
2019-04-20T22:54:52.158Z,14.77
2019-04-20T22:57:53.448Z,14.63
2019-04-20T23:00:52.041Z,14.29
2019-04-20T23:03:52.734Z,14.01
2019-04-20T23:06:57.338Z,13.96
2019-04-20T23:10:03.409Z,14.00
2019-04-20T23:13:07.833Z,14.04
2019-04-20T23:16:11.729Z,14.15
2019-04-20T23:19:30.052Z,14.28
2019-04-20T23:22:22.967Z,14.45
2019-04-20T23:25:27.153Z,14.66
2019-04-20T23:28:31.328Z,14.97
2019-04-20T23:31:39.031Z,15.34
2019-04-20T23:34:42.679Z,15.66
2019-04-20T23:37:46.681Z,16.01
2019-04-20T23:40:52.092Z,16.30
2019-04-20T23:44:18.500Z,16.56
2019-04-20T23:47:39.756Z,16.75
2019-04-20T23:50:58.227Z,16.83
2019-04-20T23:53:58.611Z,16.84
2019-04-20T23:56:55.662Z,16.92
